Time;durP1;ratioP1;P1;durP2;ratioP2;P2;SDS_P1;SDS_P2;PMS_P1;PMS_P2;Temp;Humidity;BMP_temperature;BMP_pressure;BME280_temperature;BME280_humidity;BME280_pressure;Samples;Min_cycle;Max_cycle;Signal;HPM_P1;HPM_P2
2022/12/19 00:01:25;;;;;;;11.48;6.42;;;;;;;-6.71;79.84;101965.95;1756406;80;21047;-66
2022/12/19 00:03:55;;;;;;;14.03;8.30;;;;;;;-6.70;80.02;101957.34;1767186;80;21058;-65
2022/12/19 00:06:22;;;;;;;11.25;6.85;;;;;;;-6.67;80.01;101956.47;1773646;79;21130;-65
2022/12/19 00:08:49;;;;;;;12.93;7.95;;;;;;;-6.65;80.25;101962.05;1779092;80;21124;-63
2022/12/19 00:11:19;;;;;;;13.70;7.47;;;;;;;-6.62;80.35;101966.38;1781036;80;21022;-63
2022/12/19 00:13:46;;;;;;;11.97;6.45;;;;;;;-6.58;80.43;101957.73;1767200;80;21576;-64
2022/12/19 00:16:16;;;;;;;12.75;7.40;;;;;;;-6.51;80.53;101964.59;1789361;78;21179;-64
2022/12/19 00:18:44;;;;;;;11.73;7.25;;;;;;;-6.42;80.32;101963.27;1797618;78;21261;-64
2022/12/19 00:21:13;;;;;;;11.33;6.30;;;;;;;-6.41;80.25;101963.72;1776837;80;20996;-63
2022/12/19 00:23:40;;;;;;;10.55;6.50;;;;;;;-6.39;80.04;101968.45;1775629;80;21079;-62
2022/12/19 00:26:12;;;;;;;9.85;5.90;;;;;;;-6.39;79.96;101959.39;1759745;81;21054;-64
2022/12/19 00:28:40;;;;;;;11.55;6.40;;;;;;;-6.40;80.05;101963.27;1769118;80;20969;-65
2022/12/19 00:31:07;;;;;;;11.22;6.37;;;;;;;-6.38;80.48;101969.30;1762043;80;21858;-65
2022/12/19 00:33:34;;;;;;;10.60;6.53;;;;;;;-6.30;80.19;101977.03;1772729;80;21165;-66
2022/12/19 00:36:11;;;;;;;9.83;6.00;;;;;;;-6.28;80.18;101973.56;1770578;80;21016;-66
2022/12/19 00:38:38;;;;;;;9.93;5.67;;;;;;;-6.29;79.89;101979.62;1762066;80;21420;-64
2022/12/19 00:41:16;;;;;;;10.63;6.87;;;;;;;-6.27;79.96;101983.50;1758021;81;21008;-67
2022/12/19 00:43:43;;;;;;;11.35;6.10;;;;;;;-6.26;79.95;101981.33;1756713;80;21174;-66
2022/12/19 00:46:13;;;;;;;11.57;5.70;;;;;;;-6.28;80.02;101983.05;1764562;80;21088;-67
2022/12/19 00:48:40;;;;;;;11.60;7.00;;;;;;;-6.26;79.94;101991.23;1769808;80;21106;-67
2022/12/19 00:51:12;;;;;;;10.40;5.60;;;;;;;-6.27;80.09;101989.97;1757299;81;21094;-67
2022/12/19 00:53:40;;;;;;;7.83;5.10;;;;;;;-6.21;79.97;101988.64;1770943;80;21010;-66
2022/12/19 00:56:11;;;;;;;9.15;5.35;;;;;;;-6.19;80.09;101994.23;1779895;80;21337;-67
2022/12/19 00:58:38;;;;;;;10.20;5.40;;;;;;;-6.14;79.99;101983.88;1754715;80;21018;-65
2022/12/19 01:01:12;;;;;;;11.12;7.05;;;;;;;-6.12;80.30;101991.20;1761341;80;21537;-65
2022/12/19 01:03:38;;;;;;;10.03;6.57;;;;;;;-6.05;80.19;101987.69;1759700;80;21019;-67
2022/12/19 01:06:06;;;;;;;9.58;5.72;;;;;;;-5.97;80.38;101984.66;1743916;80;21085;-67
2022/12/19 01:08:33;;;;;;;9.40;5.90;;;;;;;-5.86;80.29;101994.91;1746410;80;21177;-66
2022/12/19 01:10:59;;;;;;;10.55;6.40;;;;;;;-5.78;79.86;101993.13;1734365;81;21540;-63
2022/12/19 01:13:27;;;;;;;10.68;6.50;;;;;;;-5.76;79.58;101999.16;1746202;81;21051;-63
2022/12/19 01:15:56;;;;;;;9.53;5.55;;;;;;;-5.74;79.62;102001.33;1756992;80;21068;-65
2022/12/19 01:18:22;;;;;;;9.48;5.37;;;;;;;-5.72;79.51;102005.18;1779055;79;21050;-64
2022/12/19 01:20:49;;;;;;;8.70;6.28;;;;;;;-5.70;79.40;102005.17;1793438;78;21148;-65
2022/12/19 01:23:15;;;;;;;11.22;7.28;;;;;;;-5.65;79.25;102021.56;1772151;79;21042;-65
2022/12/19 01:25:42;;;;;;;11.28;6.47;;;;;;;-5.69;78.94;102014.69;1768996;80;20994;-64
2022/12/19 01:28:14;;;;;;;8.70;5.42;;;;;;;-5.71;79.18;102019.86;1761026;80;21073;-66
2022/12/19 01:30:40;;;;;;;8.00;5.00;;;;;;;-5.68;78.84;102013.80;1770637;81;20994;-65
2022/12/19 01:33:11;;;;;;;9.53;5.08;;;;;;;-5.71;78.78;102022.89;1740197;82;21262;-65
2022/12/19 01:35:39;;;;;;;9.15;5.60;;;;;;;-5.74;78.88;102031.52;1767280;80;21036;-64
2022/12/19 01:38:05;;;;;;;8.95;5.37;;;;;;;-5.74;78.89;102033.70;1788775;79;21026;-67
2022/12/19 01:40:33;;;;;;;9.35;5.45;;;;;;;-5.73;78.85;102035.41;1771973;79;21017;-69
2022/12/19 01:43:02;;;;;;;7.20;4.78;;;;;;;-5.74;78.80;102029.81;1769541;80;21076;-66
2022/12/19 01:45:33;;;;;;;10.15;5.37;;;;;;;-5.76;78.83;102022.90;1770996;81;21875;-68
2022/12/19 01:48:23;;;;;;;8.13;5.20;;;;;;;-5.76;79.25;102028.93;1786539;80;20989;-66
2022/12/19 01:51:00;;;;;;;9.58;5.78;;;;;;;-5.66;79.29;102034.95;1763905;81;21065;-64
2022/12/19 01:53:42;;;;;;;10.00;5.92;;;;;;;-5.66;79.00;102032.77;1786018;79;21023;-65
2022/12/19 01:56:10;;;;;;;10.55;5.87;;;;;;;-5.71;79.29;102028.92;1745218;81;21017;-63
2022/12/19 01:58:40;;;;;;;10.08;5.87;;;;;;;-5.65;79.31;102028.89;1744648;81;21223;-63
2022/12/19 02:01:07;;;;;;;9.95;5.75;;;;;;;-5.62;78.83;102036.66;1771329;80;21013;-65
2022/12/19 02:03:35;;;;;;;11.25;7.28;;;;;;;-5.62;78.84;102037.95;1770871;81;21096;-66
2022/12/19 02:06:02;;;;;;;11.50;6.30;;;;;;;-5.61;78.93;102036.20;1766106;81;21518;-67
2022/12/19 02:08:30;;;;;;;11.35;6.78;;;;;;;-5.58;79.03;102036.20;1760858;80;21097;-66
2022/12/19 02:10:56;;;;;;;15.78;7.35;;;;;;;-5.55;78.96;102042.64;1768729;79;21307;-66
2022/12/19 02:13:23;;;;;;;12.07;7.40;;;;;;;-5.51;79.07;102040.45;1782972;79;21333;-66
2022/12/19 02:16:10;;;;;;;12.47;6.78;;;;;;;-5.45;78.91;102033.08;1756983;81;21057;-68
2022/12/19 02:19:01;;;;;;;13.08;6.72;;;;;;;-5.44;79.04;102033.08;1752098;80;21023;-67
2022/12/19 02:21:48;;;;;;;10.18;5.75;;;;;;;-5.39;78.89;102034.33;1767231;80;21062;-68
2022/12/19 02:24:52;;;;;;;9.28;5.20;;;;;;;-5.39;78.69;102039.52;1755629;81;21163;-66
2022/12/19 02:29:57;;;;;;;13.77;6.83;;;;;;;-5.50;78.94;102037.01;1818354;78;22685;-68
2022/12/19 02:32:50;;;;;;;10.82;6.33;;;;;;;-5.53;79.49;102040.90;1749423;80;21099;-65
2022/12/19 02:35:29;;;;;;;9.85;5.37;;;;;;;-5.42;79.47;102042.14;1759786;81;21153;-68
2022/12/19 02:38:28;;;;;;;10.80;6.78;;;;;;;-5.40;79.04;102050.32;1754248;81;21059;-64
2022/12/19 02:41:06;;;;;;;11.38;7.67;;;;;;;-5.41;78.97;102060.69;1789988;79;20956;-66
2022/12/19 02:43:38;;;;;;;11.90;6.85;;;;;;;-5.46;79.24;102065.91;1790025;80;21052;-65
2022/12/19 02:46:05;;;;;;;12.18;6.78;;;;;;;-5.48;79.55;102074.56;1732835;80;20962;-66
2022/12/19 02:48:33;;;;;;;14.50;7.60;;;;;;;-5.45;79.60;102072.80;1758929;81;21152;-65
2022/12/19 02:51:00;;;;;;;11.78;7.42;;;;;;;-5.40;79.49;102081.41;1788642;78;20956;-66
2022/12/19 02:53:26;;;;;;;13.10;6.85;;;;;;;-5.35;79.67;102077.48;1800623;78;21135;-64
2022/12/19 02:56:35;;;;;;;11.50;6.37;;;;;;;-5.30;79.79;102085.25;1808673;78;21044;-64
2022/12/19 02:59:28;;;;;;;13.15;7.45;;;;;;;-5.23;79.75;102092.13;1819502;78;21032;-66
2022/12/19 03:14:58;;;;;;;9.80;7.03;;;;;;;-3.81;77.08;102082.13;1759648;80;22011;-72
2022/12/19 03:17:25;;;;;;;9.85;6.12;;;;;;;-3.86;75.95;102086.54;1726460;82;21025;-71
2022/12/19 03:19:52;;;;;;;10.85;6.90;;;;;;;-4.02;76.37;102083.69;1725754;83;21151;-71
2022/12/19 03:22:19;;;;;;;10.80;7.50;;;;;;;-4.09;76.23;102076.42;1726674;83;21081;-74
2022/12/19 03:24:45;;;;;;;12.82;7.97;;;;;;;-4.19;76.42;102074.78;1699545;83;21043;-74
2022/12/19 03:27:17;;;;;;;12.05;7.28;;;;;;;-4.17;76.90;102075.20;1664238;84;21055;-72
2022/12/19 03:30:02;;;;;;;10.13;6.70;;;;;;;-4.15;76.88;102072.59;1697320;84;21086;-73
2022/12/19 03:32:29;;;;;;;10.13;6.08;;;;;;;-4.15;76.80;102079.94;1685535;83;21220;-73
2022/12/19 03:35:06;;;;;;;9.00;5.92;;;;;;;-4.15;76.66;102080.38;1726829;83;20986;-73
2022/12/19 03:37:35;;;;;;;8.88;6.00;;;;;;;-4.18;76.85;102079.95;1723542;83;21580;-75
2022/12/19 03:40:06;;;;;;;9.13;5.78;;;;;;;-4.18;76.77;102081.70;1704482;83;21085;-74
2022/12/19 03:45:25;;;;;;;9.85;6.67;;;;;;;-4.22;76.53;102074.38;1699994;83;21488;-72
2022/12/19 03:47:58;;;;;;;12.85;7.10;;;;;;;-4.30;76.57;102080.10;1726890;82;21065;-71
2022/12/19 03:50:24;;;;;;;9.65;6.08;;;;;;;-4.34;76.59;102077.12;1726843;83;21058;-74
2022/12/19 03:53:02;;;;;;;9.75;6.10;;;;;;;-4.42;76.74;102079.80;1722866;83;21057;-74
2022/12/19 03:55:40;;;;;;;9.48;5.72;;;;;;;-4.47;76.92;102090.64;1697747;84;21108;-74
2022/12/19 03:58:12;;;;;;;9.15;5.70;;;;;;;-4.46;77.22;102092.38;1696859;84;21345;-71
2022/12/19 04:00:40;;;;;;;12.70;7.05;;;;;;;-4.43;77.05;102088.44;1735500;81;21061;-71
2022/12/19 04:03:07;;;;;;;11.30;6.30;;;;;;;-4.45;77.11;102101.01;1751454;81;21025;-71
2022/12/19 04:05:34;;;;;;;11.97;6.30;;;;;;;-4.44;77.49;102098.82;1710489;83;21492;-73
2022/12/19 04:08:04;;;;;;;13.38;6.10;;;;;;;-4.38;77.40;102092.30;1643821;84;21651;-72
2022/12/19 04:10:32;;;;;;;9.05;5.92;;;;;;;-4.39;77.35;102078.44;1696828;84;21153;-70
2022/12/19 04:13:03;;;;;;;12.03;6.42;;;;;;;-4.32;77.40;102079.26;1697074;82;21073;-72
2022/12/19 04:15:50;;;;;;;9.70;6.22;;;;;;;-4.30;77.36;102081.84;1691698;84;21049;-70
2022/12/19 04:18:17;;;;;;;10.85;5.95;;;;;;;-4.35;76.90;102080.58;1691640;84;21101;-71
2022/12/19 04:20:48;;;;;;;10.68;5.45;;;;;;;-4.41;77.04;102079.34;1691737;84;21078;-70
2022/12/19 04:23:19;;;;;;;9.93;5.87;;;;;;;-4.46;77.35;102096.68;1691905;84;21198;-70
2022/12/19 04:25:50;;;;;;;12.10;5.87;;;;;;;-4.41;76.99;102104.00;1691744;84;21054;-71
2022/12/19 04:28:21;;;;;;;9.20;6.03;;;;;;;-4.49;76.76;102109.70;1690518;84;21141;-67
2022/12/19 04:30:48;;;;;;;9.40;5.72;;;;;;;-4.61;76.97;102106.34;1691180;84;21025;-71
2022/12/19 04:33:14;;;;;;;12.25;6.80;;;;;;;-4.61;77.38;102098.55;1671290;83;21120;-69
2022/12/19 04:35:41;;;;;;;10.08;5.87;;;;;;;-4.59;77.66;102101.14;1672532;85;21123;-69
2022/12/19 04:38:07;;;;;;;12.20;6.67;;;;;;;-4.52;77.65;102109.72;1669963;83;21522;-68
2022/12/19 04:40:34;;;;;;;11.08;6.70;;;;;;;-4.48;77.49;102109.69;1672468;85;21115;-69
2022/12/19 04:43:01;;;;;;;13.15;6.78;;;;;;;-4.52;77.29;102106.67;1673532;85;21119;-68
2022/12/19 04:45:29;;;;;;;14.65;8.00;;;;;;;-4.51;77.32;102113.60;1678922;83;21122;-70
2022/12/19 04:47:55;;;;;;;10.13;6.15;;;;;;;-4.50;77.54;102118.34;1689213;84;21107;-69
2022/12/19 04:50:23;;;;;;;14.65;6.75;;;;;;;-4.51;77.33;102122.69;1687036;83;21109;-69
2022/12/19 04:52:49;;;;;;;11.12;6.47;;;;;;;-4.51;77.24;102125.72;1678326;83;21030;-68
2022/12/19 04:55:16;;;;;;;12.95;7.10;;;;;;;-4.50;77.29;102133.50;1691638;84;21038;-70
2022/12/19 04:57:42;;;;;;;12.40;6.78;;;;;;;-4.52;77.25;102127.88;1689092;84;21097;-69
2022/12/19 05:00:11;;;;;;;11.10;6.85;;;;;;;-4.55;77.56;102134.81;1679295;83;21219;-69
2022/12/19 05:02:37;;;;;;;12.45;7.12;;;;;;;-4.50;77.57;102141.28;1690109;84;21132;-72
2022/12/19 05:05:05;;;;;;;16.17;9.03;;;;;;;-4.51;77.32;102142.59;1690612;83;21116;-70
2022/12/19 05:07:31;;;;;;;11.15;7.45;;;;;;;-4.52;77.25;102147.34;1683812;83;21072;-69
2022/12/19 05:09:58;;;;;;;13.03;6.83;;;;;;;-4.55;77.19;102143.05;1673157;85;21016;-68
2022/12/19 05:12:24;;;;;;;16.30;7.90;;;;;;;-4.61;77.08;102149.14;1672558;85;21282;-71
2022/12/19 05:14:51;;;;;;;12.78;7.20;;;;;;;-4.68;77.08;102150.50;1689338;84;21512;-68
2022/12/19 05:17:18;;;;;;;12.55;6.53;;;;;;;-4.77;77.29;102155.30;1696680;84;21046;-69
2022/12/19 05:19:44;;;;;;;11.50;6.65;;;;;;;-4.85;77.59;102155.35;1695819;82;21044;-69
2022/12/19 05:22:11;;;;;;;12.23;7.72;;;;;;;-4.88;77.63;102160.58;1696217;84;21108;-70
2022/12/19 05:24:37;;;;;;;12.80;7.78;;;;;;;-5.00;77.65;102151.59;1696266;84;21281;-70
2022/12/19 05:27:03;;;;;;;13.78;7.92;;;;;;;-5.00;77.95;102162.81;1696549;84;21524;-70
2022/12/19 05:29:31;;;;;;;15.98;8.30;;;;;;;-5.02;78.36;102171.04;1696831;84;21073;-70
2022/12/19 05:31:59;;;;;;;13.22;7.87;;;;;;;-4.96;78.41;102163.66;1697025;82;20994;-69
2022/12/19 05:34:25;;;;;;;15.13;7.95;;;;;;;-4.95;78.38;102163.62;1696870;82;21093;-68
2022/12/19 05:36:53;;;;;;;11.10;6.97;;;;;;;-4.93;78.50;102170.11;1691820;84;21473;-67
2022/12/19 05:39:20;;;;;;;11.70;7.33;;;;;;;-4.86;78.79;102177.43;1696238;82;21084;-69
2022/12/19 05:41:46;;;;;;;10.85;6.92;;;;;;;-4.82;78.63;102168.75;1696295;82;21112;-69
2022/12/19 05:44:13;;;;;;;15.10;7.17;;;;;;;-4.76;78.47;102167.41;1696549;84;21053;-68
2022/12/19 05:46:40;;;;;;;14.85;8.28;;;;;;;-4.73;78.34;102171.29;1696825;82;21096;-70
2022/12/19 05:49:07;;;;;;;12.43;7.58;;;;;;;-4.73;78.29;102179.07;1696693;84;21300;-69
2022/12/19 05:51:34;;;;;;;14.70;7.75;;;;;;;-4.74;78.20;102174.74;1696847;82;21155;-71
2022/12/19 05:54:03;;;;;;;12.43;7.20;;;;;;;-4.77;78.15;102185.13;1695633;82;21312;-70
2022/12/19 05:56:30;;;;;;;13.78;7.80;;;;;;;-4.77;78.15;102175.64;1684390;85;21580;-69
2022/12/19 05:58:57;;;;;;;15.98;7.72;;;;;;;-4.83;78.26;102182.17;1671774;84;21084;-70
2022/12/19 06:01:25;;;;;;;14.60;7.92;;;;;;;-4.82;78.25;102192.09;1677611;84;21306;-70
2022/12/19 06:03:51;;;;;;;20.30;11.20;;;;;;;-4.89;78.05;102191.70;1668000;86;21566;-69
2022/12/19 06:06:23;;;;;;;12.68;6.67;;;;;;;-4.92;78.23;102189.14;1668053;86;22066;-72
2022/12/19 06:08:56;;;;;;;13.53;8.03;;;;;;;-4.96;78.30;102194.78;1639487;87;21355;-72
2022/12/19 06:11:22;;;;;;;14.40;8.40;;;;;;;-4.97;78.39;102204.27;1650852;85;21589;-71
2022/12/19 06:13:49;;;;;;;16.50;8.58;;;;;;;-4.98;78.72;102206.89;1661273;85;22279;-73
2022/12/19 06:16:18;;;;;;;15.50;8.70;;;;;;;-4.99;78.71;102202.56;1687796;85;21018;-72
2022/12/19 06:18:44;;;;;;;13.83;7.85;;;;;;;-4.96;78.93;102200.81;1688005;84;21102;-71
2022/12/19 06:21:18;;;;;;;15.35;8.33;;;;;;;-4.90;78.82;102204.25;1687960;85;21561;-71
2022/12/19 06:23:45;;;;;;;12.98;8.28;;;;;;;-4.91;78.74;102205.96;1687362;85;21001;-72
2022/12/19 06:26:13;;;;;;;14.73;7.25;;;;;;;-4.94;78.73;102206.00;1686620;85;21159;-70
2022/12/19 06:28:40;;;;;;;15.95;8.93;;;;;;;-4.95;78.98;102200.38;1687803;85;21041;-71
2022/12/19 06:31:06;;;;;;;17.32;9.53;;;;;;;-4.91;79.03;102207.26;1687730;85;22211;-70
2022/12/19 06:33:34;;;;;;;15.60;9.18;;;;;;;-4.90;79.12;102207.70;1686934;84;21050;-69
2022/12/19 06:36:13;;;;;;;13.58;7.60;;;;;;;-4.87;79.02;102210.70;1687602;85;21038;-69
2022/12/19 06:38:39;;;;;;;16.23;9.20;;;;;;;-4.89;78.82;102211.14;1687706;85;21250;-68
2022/12/19 06:43:51;;;;;;;21.05;9.50;;;;;;;-4.88;79.30;102224.55;1686997;85;21066;-68
2022/12/19 06:46:18;;;;;;;19.70;10.53;;;;;;;-4.87;79.47;102219.33;1687767;84;21106;-68
2022/12/19 06:48:44;;;;;;;17.40;9.70;;;;;;;-4.83;79.54;102232.73;1687952;85;21077;-68
2022/12/19 06:51:11;;;;;;;18.37;10.98;;;;;;;-4.82;79.44;102229.25;1687843;85;21254;-68
2022/12/19 06:53:37;;;;;;;18.82;10.08;;;;;;;-4.77;79.34;102231.81;1687832;85;21049;-69
2022/12/19 06:56:05;;;;;;;19.45;10.93;;;;;;;-4.77;79.48;102231.81;1687916;85;21045;-69
2022/12/19 06:58:32;;;;;;;19.98;10.72;;;;;;;-4.75;79.53;102224.91;1687373;85;21121;-67
2022/12/19 07:01:00;;;;;;;17.85;9.38;;;;;;;-4.72;79.42;102220.13;1687414;85;21077;-69
2022/12/19 07:03:31;;;;;;;17.62;10.88;;;;;;;-4.73;79.22;102216.68;1687674;83;21249;-68
2022/12/19 07:05:58;;;;;;;22.15;12.60;;;;;;;-4.72;79.08;102210.61;1685154;83;21062;-70
2022/12/19 07:08:28;;;;;;;21.82;12.00;;;;;;;-4.77;79.16;102214.95;1672253;85;21009;-69
2022/12/19 07:10:57;;;;;;;21.35;12.58;;;;;;;-4.80;79.38;102215.84;1675300;85;21093;-70
2022/12/19 07:13:23;;;;;;;18.17;10.50;;;;;;;-4.79;79.45;102216.28;1682433;85;21105;-69
2022/12/19 07:15:51;;;;;;;23.40;12.58;;;;;;;-4.78;79.40;102216.69;1667850;84;22240;-72
2022/12/19 07:18:19;;;;;;;20.97;11.00;;;;;;;-4.79;79.35;102221.88;1667095;85;21026;-70
2022/12/19 07:20:45;;;;;;;27.10;14.38;;;;;;;-4.79;79.30;102227.06;1682533;85;21062;-69
2022/12/19 07:23:14;;;;;;;23.38;13.32;;;;;;;-4.81;79.43;102228.81;1682346;85;21062;-70
2022/12/19 07:25:41;;;;;;;23.87;12.78;;;;;;;-4.79;79.45;102233.55;1682440;85;21064;-71
2022/12/19 07:28:07;;;;;;;25.08;13.75;;;;;;;-4.80;79.61;102235.73;1682496;85;21162;-70
2022/12/19 07:30:35;;;;;;;20.92;13.00;;;;;;;-4.82;79.71;102239.63;1682324;85;21023;-70
2022/12/19 07:33:01;;;;;;;22.75;12.30;;;;;;;-4.77;79.67;102244.77;1682454;85;21062;-71
2022/12/19 07:35:28;;;;;;;24.57;14.75;;;;;;;-4.80;79.65;102245.66;1681469;85;21033;-69
2022/12/19 07:38:04;;;;;;;25.72;13.53;;;;;;;-4.79;79.62;102242.22;1682479;85;21038;-70
2022/12/19 07:40:30;;;;;;;24.07;13.18;;;;;;;-4.78;79.74;102240.47;1641008;84;21156;-69
2022/12/19 07:43:01;;;;;;;26.20;14.38;;;;;;;-4.75;79.94;102249.11;1671627;85;21556;-70
2022/12/19 07:45:28;;;;;;;20.65;11.63;;;;;;;-4.72;79.95;102245.62;1665605;86;21025;-69
2022/12/19 07:47:56;;;;;;;21.77;13.20;;;;;;;-4.73;79.92;102243.91;1674675;85;21524;-68
2022/12/19 07:50:22;;;;;;;19.73;12.70;;;;;;;-4.70;79.78;102251.66;1654307;86;21025;-69
2022/12/19 07:52:49;;;;;;;22.00;11.93;;;;;;;-4.70;79.60;102257.29;1681550;85;21245;-69
2022/12/19 07:55:16;;;;;;;22.45;12.63;;;;;;;-4.69;79.77;102263.77;1682343;85;21009;-68
2022/12/19 07:57:42;;;;;;;23.52;12.43;;;;;;;-4.69;79.57;102272.85;1682356;85;21038;-69
2022/12/19 08:00:12;;;;;;;22.25;13.35;;;;;;;-4.71;79.42;102282.78;1676374;85;21148;-70
2022/12/19 08:02:41;;;;;;;22.05;13.05;;;;;;;-4.70;79.49;102293.16;1682616;85;21078;-68
2022/12/19 08:05:08;;;;;;;24.05;12.63;;;;;;;-4.70;79.65;102293.16;1682574;83;21225;-70
2022/12/19 08:07:37;;;;;;;18.65;10.65;;;;;;;-4.63;79.52;102305.23;1681009;83;21039;-70
2022/12/19 08:10:05;;;;;;;21.10;12.47;;;;;;;-4.60;79.38;102309.13;1680156;85;21051;-69
2022/12/19 08:12:33;;;;;;;20.75;11.75;;;;;;;-4.57;79.25;102299.16;1677233;85;21078;-70
2022/12/19 08:14:59;;;;;;;25.43;12.20;;;;;;;-4.55;79.54;102298.71;1679172;85;21100;-70
2022/12/19 08:17:26;;;;;;;20.10;12.20;;;;;;;-4.46;79.41;102304.27;1668242;85;21264;-70
2022/12/19 08:19:52;;;;;;;20.32;12.65;;;;;;;-4.42;79.24;102302.11;1684141;85;21021;-69
2022/12/19 08:22:19;;;;;;;22.00;11.40;;;;;;;-4.38;78.90;102300.77;1683436;85;20967;-71
2022/12/19 08:24:46;;;;;;;21.62;12.05;;;;;;;-4.35;79.17;102303.36;1670992;85;21084;-70
2022/12/19 08:27:12;;;;;;;20.92;12.47;;;;;;;-4.23;79.13;102303.70;1684450;85;20999;-70
2022/12/19 08:29:39;;;;;;;19.50;12.13;;;;;;;-4.12;79.11;102302.75;1655662;85;21125;-71
2022/12/19 08:32:05;;;;;;;22.00;12.25;;;;;;;-3.97;78.90;102298.74;1683103;85;21040;-70
2022/12/19 08:34:32;;;;;;;20.30;13.03;;;;;;;-3.89;78.78;102306.02;1691456;85;21573;-70
2022/12/19 08:36:59;;;;;;;22.70;13.20;;;;;;;-3.75;78.38;102299.41;1693271;84;21010;-69
2022/12/19 08:39:26;;;;;;;21.12;12.88;;;;;;;-3.68;77.85;102298.93;1691231;85;21050;-69
2022/12/19 08:41:52;;;;;;;23.15;14.78;;;;;;;-3.59;77.55;102301.00;1701527;84;21222;-68
2022/12/19 08:44:18;;;;;;;24.65;13.93;;;;;;;-3.51;77.34;102297.48;1699648;84;21017;-68
2022/12/19 08:46:45;;;;;;;25.43;13.08;;;;;;;-3.46;77.16;102293.92;1699561;84;21049;-68
2022/12/19 08:49:12;;;;;;;22.07;13.25;;;;;;;-3.38;77.02;102294.73;1678013;84;21085;-71
2022/12/19 08:51:38;;;;;;;24.65;14.38;;;;;;;-3.30;76.25;102299.84;1690306;85;21058;-72
2022/12/19 08:54:05;;;;;;;26.12;14.47;;;;;;;-3.25;76.08;102290.69;1700963;84;21155;-71
2022/12/19 08:56:32;;;;;;;27.35;13.18;;;;;;;-3.20;76.15;102281.11;1701497;83;21120;-70
2022/12/19 08:58:58;;;;;;;22.42;12.07;;;;;;;-3.12;75.35;102280.56;1707892;83;21053;-73
2022/12/19 09:01:25;;;;;;;21.45;13.18;;;;;;;-3.03;74.90;102280.91;1701516;84;20981;-72
2022/12/19 09:03:51;;;;;;;25.65;14.95;;;;;;;-2.83;75.05;102284.09;1701845;83;21021;-72
2022/12/19 09:06:18;;;;;;;21.75;12.88;;;;;;;-2.52;74.64;102276.33;1700604;84;21231;-74
2022/12/19 09:08:44;;;;;;;18.20;11.88;;;;;;;-2.28;73.63;102282.89;1699501;84;21022;-74
2022/12/19 09:11:16;;;;;;;22.22;13.48;;;;;;;-2.09;73.02;102282.17;1699654;84;21021;-73
2022/12/19 09:13:43;;;;;;;20.02;12.85;;;;;;;-1.88;72.63;102276.60;1698286;84;21010;-74
2022/12/19 09:16:18;;;;;;;19.02;12.58;;;;;;;-1.67;71.73;102270.61;1695631;84;21073;-74
2022/12/19 09:18:47;;;;;;;22.58;13.55;;;;;;;-1.66;70.92;102273.20;1697945;84;21146;-73
2022/12/19 09:21:13;;;;;;;23.32;13.03;;;;;;;-1.88;69.95;102281.81;1697811;84;21112;-72
2022/12/19 09:23:41;;;;;;;22.48;14.23;;;;;;;-2.13;70.16;102279.20;1693459;84;21084;-74
2022/12/19 09:26:10;;;;;;;23.42;15.05;;;;;;;-2.42;70.42;102286.56;1669879;85;21093;-73
2022/12/19 09:28:37;;;;;;;25.50;14.73;;;;;;;-2.65;71.11;102288.19;1669861;86;21667;-74
2022/12/19 09:31:07;;;;;;;24.30;14.80;;;;;;;-2.78;71.82;102291.87;1669823;86;21171;-73
2022/12/19 09:33:34;;;;;;;29.02;16.40;;;;;;;-2.86;72.39;102294.56;1648101;86;21084;-73
2022/12/19 09:36:01;;;;;;;25.57;17.52;;;;;;;-2.84;72.93;102294.11;1673251;84;21588;-74
2022/12/19 09:38:29;;;;;;;29.18;18.73;;;;;;;-2.75;73.80;102300.91;1674326;85;21603;-73
2022/12/19 09:41:01;;;;;;;26.15;16.57;;;;;;;-2.55;74.08;102301.94;1686740;85;21065;-73
2022/12/19 09:44:10;;;;;;;28.85;16.90;;;;;;;-2.45;73.43;102313.96;1670133;86;21862;-72
2022/12/19 09:46:50;;;;;;;23.12;14.43;;;;;;;-2.34;73.67;102310.33;1691464;84;21038;-74
2022/12/19 09:49:26;;;;;;;22.52;14.35;;;;;;;-2.14;73.46;102308.72;1670134;86;21089;-72
2022/12/19 09:52:06;;;;;;;21.45;14.33;;;;;;;-2.03;73.16;102308.11;1641340;85;21010;-72
2022/12/19 09:54:56;;;;;;;21.75;13.28;;;;;;;-1.93;72.61;102307.52;1659758;86;21109;-73
2022/12/19 09:57:33;;;;;;;25.15;14.33;;;;;;;-1.63;71.94;102305.70;1659497;86;21147;-73
2022/12/19 10:00:08;;;;;;;22.32;13.93;;;;;;;-1.14;71.27;102300.47;1673106;84;21033;-73
2022/12/19 10:03:07;;;;;;;21.52;13.15;;;;;;;-0.64;70.45;102286.39;1688581;85;21116;-73
2022/12/19 10:06:03;;;;;;;21.00;13.65;;;;;;;-0.09;68.70;102282.93;1696859;84;21080;-74
2022/12/19 10:08:37;;;;;;;18.85;12.75;;;;;;;0.39;67.86;102279.97;1696804;84;21086;-75
2022/12/19 10:11:11;;;;;;;19.23;13.70;;;;;;;0.68;65.43;102269.63;1697873;84;21832;-75
2022/12/19 10:14:04;;;;;;;18.32;12.82;;;;;;;0.96;65.58;102265.77;1697298;83;21038;-74
2022/12/19 10:16:50;;;;;;;17.80;13.00;;;;;;;1.14;65.25;102267.86;1698017;84;21039;-75
2022/12/19 10:19:48;;;;;;;18.60;13.70;;;;;;;1.43;63.38;102245.17;1700662;84;21035;-75
2022/12/19 10:22:25;;;;;;;21.20;13.40;;;;;;;1.59;61.70;102271.73;1700677;84;21024;-75
2022/12/19 10:25:19;;;;;;;20.77;13.15;;;;;;;2.03;63.43;102269.45;1699702;84;21170;-74
2022/12/19 10:27:55;;;;;;;17.85;13.53;;;;;;;2.59;63.40;102264.90;1624119;88;21104;-74
2022/12/19 10:30:22;;;;;;;21.35;14.53;;;;;;;2.74;61.52;102266.54;1627222;86;21073;-75
2022/12/19 10:33:15;;;;;;;24.23;16.00;;;;;;;2.36;59.25;102271.37;1636910;86;21076;-75
2022/12/19 10:35:43;;;;;;;21.37;15.45;;;;;;;1.82;59.57;102266.22;1653413;86;22208;-75
2022/12/19 10:38:52;;;;;;;17.80;14.15;;;;;;;2.10;59.53;102262.22;1671606;84;21224;-74
2022/12/19 10:41:25;;;;;;;23.22;15.53;;;;;;;2.10;59.53;102262.22;1708146;83;21082;-75
2022/12/19 10:44:04;;;;;;;21.10;14.90;;;;;;;3.18;62.11;102258.36;1680706;84;21064;-74
2022/12/19 10:46:45;;;;;;;22.13;14.68;;;;;;;4.37;59.00;102256.58;1690856;84;21080;-75
2022/12/19 10:49:18;;;;;;;20.75;16.12;;;;;;;5.19;54.65;102243.22;1690968;84;21053;-75
2022/12/19 10:51:58;;;;;;;21.17;15.43;;;;;;;5.50;55.82;102235.17;1691295;84;21098;-76
2022/12/19 10:54:40;;;;;;;20.17;15.00;;;;;;;6.08;52.11;102237.63;1682983;84;21081;-74
2022/12/19 10:57:25;;;;;;;19.40;13.98;;;;;;;6.18;50.54;102239.77;1691130;84;21022;-75
2022/12/19 11:00:15;;;;;;;18.95;13.85;;;;;;;5.88;51.61;102231.97;1699572;83;21592;-75
2022/12/19 11:02:48;;;;;;;19.25;14.55;;;;;;;5.48;53.60;102231.76;1677326;85;21092;-74
2022/12/19 11:05:28;;;;;;;19.37;14.07;;;;;;;5.01;52.49;102229.13;1663209;84;21256;-75
2022/12/19 11:08:16;;;;;;;19.57;13.48;;;;;;;4.39;53.64;102233.68;1662986;86;21048;-75
2022/12/19 11:10:55;;;;;;;17.12;12.25;;;;;;;3.72;54.28;102241.33;1669125;86;21521;-74
2022/12/19 11:13:27;;;;;;;19.98;13.28;;;;;;;3.01;55.55;102230.95;1643718;86;21097;-75
2022/12/19 11:15:58;;;;;;;18.25;12.13;;;;;;;2.53;56.55;102234.05;1694941;84;21040;-75
2022/12/19 11:18:33;;;;;;;17.35;11.50;;;;;;;2.22;57.21;102239.53;1676030;84;21122;-74
2022/12/19 11:21:04;;;;;;;17.85;11.35;;;;;;;1.96;58.00;102248.27;1659644;85;21589;-76
2022/12/19 14:48:35;;;;;;;33.67;22.57;;;;;;;-3.91;80.61;102196.09;1796268;78;22489;-67
2022/12/19 14:51:11;;;;;;;35.33;21.17;;;;;;;-3.88;79.58;102196.50;1753406;79;20961;-73
2022/12/19 14:53:39;;;;;;;39.10;20.65;;;;;;;-3.86;78.80;102202.12;1745947;81;21146;-73
2022/12/19 14:56:17;;;;;;;29.92;17.77;;;;;;;-3.88;78.55;102197.80;1735387;82;21016;-73
2022/12/19 14:58:45;;;;;;;27.65;15.53;;;;;;;-3.89;78.82;102187.85;1735349;82;21016;-69
2022/12/19 15:01:25;;;;;;;26.62;16.73;;;;;;;-3.93;78.37;102184.87;1675172;79;22506;-73
2022/12/19 15:04:00;;;;;;;25.27;13.95;;;;;;;-3.90;78.31;102181.37;1759477;81;21076;-71
2022/12/19 15:06:28;;;;;;;22.62;14.30;;;;;;;-3.96;77.87;102177.09;1762475;81;21151;-67
2022/12/19 15:09:02;;;;;;;23.05;13.58;;;;;;;-3.97;78.15;102170.20;1765993;81;22043;-67
2022/12/19 15:14:25;;;;;;;21.20;12.95;;;;;;;-4.05;78.29;102174.17;1736871;81;20178;-68
2022/12/19 15:17:05;;;;;;;25.95;13.60;;;;;;;-4.09;78.37;102163.84;1723795;81;21044;-73
2022/12/19 15:19:31;;;;;;;21.68;14.40;;;;;;;-4.12;78.44;102169.05;1728884;82;21109;-71
2022/12/19 15:21:58;;;;;;;26.85;13.78;;;;;;;-4.16;78.55;102172.96;1733802;82;21042;-73